createdAt,value
2015-12-06T00:00:28.216Z,6.2
2015-12-06T00:01:28.122Z,6.3
2015-12-06T00:02:28.077Z,6.3
2015-12-06T00:03:28.018Z,6.3
2015-12-06T00:04:27.958Z,6.2
2015-12-06T00:05:27.914Z,6.2
2015-12-06T00:06:27.855Z,6.3
2015-12-06T00:07:27.796Z,6.3
2015-12-06T00:08:27.735Z,6.4
2015-12-06T00:09:27.676Z,6.4
2015-12-06T00:10:27.632Z,6.4
2015-12-06T00:11:27.573Z,6.4
2015-12-06T00:12:27.513Z,6.4
2015-12-06T00:13:27.452Z,6.4
2015-12-06T00:14:27.394Z,6.5
2015-12-06T00:15:27.350Z,6.5
2015-12-06T00:16:27.290Z,6.5
2015-12-06T00:17:27.228Z,6.5
2015-12-06T00:18:27.184Z,6.4
2015-12-06T00:20:27.064Z,6.4
2015-12-06T00:21:27.022Z,6.5
2015-12-06T00:22:26.962Z,6.4
2015-12-06T00:23:26.902Z,6.5
2015-12-06T00:24:26.843Z,6.5
2015-12-06T00:25:26.780Z,6.5
2015-12-06T00:26:26.735Z,6.4
2015-12-06T00:27:26.677Z,6.4
2015-12-06T00:28:26.616Z,6.5
2015-12-06T00:29:26.557Z,6.4
2015-12-06T00:30:26.513Z,6.4
2015-12-06T00:31:26.452Z,6.4
2015-12-06T00:32:26.408Z,6.4
2015-12-06T00:33:26.333Z,6.3
2015-12-06T00:34:26.274Z,6.3
2015-12-06T00:35:26.229Z,6.3
2015-12-06T00:36:26.169Z,6.3
2015-12-06T00:37:26.110Z,6.3
2015-12-06T00:38:26.050Z,6.3
2015-12-06T00:39:26.022Z,6.3
2015-12-06T00:40:25.946Z,6.3
2015-12-06T00:41:25.887Z,6.3
2015-12-06T00:42:25.827Z,6.3
2015-12-06T00:43:25.768Z,6.4
2015-12-06T00:44:25.709Z,6.4
2015-12-06T00:45:25.647Z,6.4
2015-12-06T00:46:25.587Z,6.4
2015-12-06T00:47:25.527Z,6.4
2015-12-06T00:48:25.482Z,6.4
2015-12-06T00:49:25.422Z,6.3
2015-12-06T00:50:25.363Z,6.3
2015-12-06T00:51:25.305Z,6.3
2015-12-06T00:52:25.245Z,6.3
2015-12-06T00:53:25.185Z,6.2
2015-12-06T00:54:25.126Z,6.2
2015-12-06T00:55:25.083Z,6.2
2015-12-06T00:56:25.021Z,6.2
2015-12-06T00:57:24.959Z,6.2
2015-12-06T00:58:24.914Z,6.2
2015-12-06T00:59:24.839Z,6.2
2015-12-06T01:00:24.779Z,6.2
2015-12-06T01:01:24.736Z,6.2
2015-12-06T01:02:24.678Z,6.1
2015-12-06T01:03:24.618Z,6.1
2015-12-06T01:04:24.558Z,6.2
2015-12-06T01:05:24.499Z,6.2
2015-12-06T01:06:24.436Z,6.2
2015-12-06T01:07:24.391Z,6.2
2015-12-06T01:08:24.332Z,6.2
2015-12-06T01:09:24.272Z,6.2
2015-12-06T01:10:24.213Z,6.2
2015-12-06T01:11:24.152Z,6.1
2015-12-06T01:12:24.093Z,6.2
2015-12-06T01:13:24.049Z,6.2
2015-12-06T01:14:23.989Z,6.2
2015-12-06T01:15:23.930Z,6.2
2015-12-06T01:16:23.886Z,6.2
2015-12-06T01:17:23.826Z,6.2
2015-12-06T01:18:23.750Z,6.2
2015-12-06T01:19:23.706Z,6.2
2015-12-06T01:20:23.647Z,6.2
2015-12-06T01:21:23.586Z,6.2
2015-12-06T01:22:23.528Z,6.3
2015-12-06T01:23:23.468Z,6.2
2015-12-06T01:24:23.406Z,6.2
2015-12-06T01:25:23.362Z,6.2
2015-12-06T01:26:23.302Z,6.3
2015-12-06T01:27:23.242Z,6.3
2015-12-06T01:28:23.183Z,6.3
2015-12-06T01:29:23.123Z,6.3
2015-12-06T01:30:23.065Z,6.3
2015-12-06T01:31:23.020Z,6.3
2015-12-06T01:32:22.961Z,6.2
2015-12-06T01:33:22.901Z,6.2
2015-12-06T01:34:22.840Z,6.2
2015-12-06T01:35:22.782Z,6.2
2015-12-06T01:36:22.737Z,6.1
2015-12-06T01:37:22.677Z,6.1
2015-12-06T01:38:22.618Z,6.1
2015-12-06T01:39:22.573Z,6.1
2015-12-06T01:40:22.498Z,6
2015-12-06T01:41:22.454Z,6.1
2015-12-06T01:42:22.394Z,6.1
2015-12-06T01:43:22.335Z,6.1
2015-12-06T01:44:22.274Z,6.2
2015-12-06T01:45:22.231Z,6.2
2015-12-06T01:46:22.171Z,6.2
2015-12-06T01:47:22.112Z,6.3
2015-12-06T01:48:22.051Z,6.3
2015-12-06T01:49:21.992Z,6.3
2015-12-06T01:50:21.947Z,6.3
2015-12-06T01:51:21.887Z,6.2
2015-12-06T01:52:21.828Z,6.2
2015-12-06T01:53:21.765Z,6.4
2015-12-06T01:54:21.706Z,6.4
2015-12-06T01:55:21.645Z,6.4
2015-12-06T01:56:21.602Z,6.4
2015-12-06T01:57:21.542Z,6.5
2015-12-06T01:58:21.482Z,6.5
2015-12-06T01:59:21.422Z,6.6
2015-12-06T02:00:21.378Z,6.6
2015-12-06T02:01:21.318Z,6.6
2015-12-06T02:02:21.259Z,6.6
2015-12-06T02:03:21.199Z,6.7
2015-12-06T02:04:21.140Z,6.7
2015-12-06T02:05:21.079Z,6.7
2015-12-06T02:06:24.051Z,6.7
2015-12-06T02:07:20.959Z,6.6
2015-12-06T02:08:20.916Z,6.7
2015-12-06T02:09:20.858Z,6.7
2015-12-06T02:10:20.796Z,6.7
2015-12-06T02:11:20.736Z,6.7
2015-12-06T02:12:20.676Z,6.7
2015-12-06T02:13:20.632Z,6.7
2015-12-06T02:14:20.572Z,6.7
2015-12-06T02:15:20.513Z,6.6
2015-12-06T02:16:20.454Z,6.6
2015-12-06T02:17:20.395Z,6.5
2015-12-06T02:18:20.351Z,6.5
2015-12-06T02:19:20.273Z,6.5
2015-12-06T02:20:20.229Z,6.5
2015-12-06T02:21:20.168Z,6.4
2015-12-06T02:22:20.109Z,6.4
2015-12-06T02:23:20.051Z,6.4
2015-12-06T02:24:20.007Z,6.4
2015-12-06T02:25:19.947Z,6.4
2015-12-06T02:26:19.887Z,6.4
2015-12-06T02:27:19.828Z,6.4
2015-12-06T02:28:19.768Z,6.4
2015-12-06T02:29:19.708Z,6.4
2015-12-06T02:30:19.668Z,6.3
2015-12-06T02:31:19.608Z,6.3
2015-12-06T02:32:19.548Z,6.3
2015-12-06T02:33:19.488Z,6.2
2015-12-06T02:34:19.428Z,6.2
2015-12-06T02:35:19.385Z,6.2
2015-12-06T02:36:19.325Z,6.2
2015-12-06T02:37:19.265Z,6.2
2015-12-06T02:38:19.205Z,6.1
2015-12-06T02:39:19.142Z,6.1
2015-12-06T02:40:19.083Z,6.1
2015-12-06T02:41:19.023Z,6.2
2015-12-06T02:42:18.978Z,6.1
2015-12-06T02:43:18.920Z,6.2
2015-12-06T02:44:18.859Z,6.2
2015-12-06T02:45:18.800Z,6.1
2015-12-06T02:46:18.740Z,6.1
2015-12-06T02:47:18.696Z,6.1
2015-12-06T02:48:18.636Z,6.1
2015-12-06T02:49:18.576Z,6.1
2015-12-06T02:50:18.519Z,6.1
2015-12-06T02:51:18.475Z,6.1
2015-12-06T02:52:18.412Z,6.1
2015-12-06T02:53:18.353Z,6.2
2015-12-06T02:54:18.293Z,6.1
2015-12-06T02:55:18.233Z,6.1
2015-12-06T02:56:18.189Z,6.1
2015-12-06T02:57:18.130Z,6.1
2015-12-06T02:58:18.070Z,6.1
2015-12-06T02:59:18.010Z,6.1
2015-12-06T03:00:17.950Z,6.1
2015-12-06T03:01:17.906Z,6
2015-12-06T03:02:17.830Z,6
2015-12-06T03:03:17.753Z,6
2015-12-06T03:04:17.677Z,6
2015-12-06T03:05:17.617Z,6
2015-12-06T03:06:17.541Z,6
2015-12-06T03:07:17.477Z,5.9
2015-12-06T03:08:17.410Z,5.9
2015-12-06T03:09:17.360Z,5.9
2015-12-06T03:10:17.295Z,6
2015-12-06T03:11:17.230Z,6
2015-12-06T03:12:17.169Z,6
2015-12-06T03:13:17.123Z,6
2015-12-06T03:14:17.061Z,6
2015-12-06T03:15:17.046Z,6
2015-12-06T03:16:16.938Z,6.1
2015-12-06T03:17:16.877Z,6.1
2015-12-06T03:18:16.832Z,6.1
2015-12-06T03:19:16.772Z,6.1
2015-12-06T03:20:16.711Z,6.1
2015-12-06T03:21:16.651Z,6.1
2015-12-06T03:22:16.588Z,6.1
2015-12-06T03:23:16.543Z,6.2
2015-12-06T03:24:16.484Z,6.2
2015-12-06T03:25:16.423Z,6.2
2015-12-06T03:26:16.378Z,6.2
2015-12-06T03:27:16.319Z,6.2
2015-12-06T03:28:16.244Z,6.2
2015-12-06T03:29:16.216Z,6.3
2015-12-06T03:30:16.140Z,6.3
2015-12-06T03:31:16.082Z,6.3
2015-12-06T03:32:16.019Z,6.3
2015-12-06T03:33:15.976Z,6.3
2015-12-06T03:34:15.915Z,6.2
2015-12-06T03:35:15.856Z,6.3
2015-12-06T03:36:15.827Z,6.3
2015-12-06T03:37:15.751Z,6.2
2015-12-06T03:38:15.694Z,6.2
2015-12-06T03:39:15.635Z,6.3
2015-12-06T03:40:15.591Z,6.3
2015-12-06T03:41:15.529Z,6.2
2015-12-06T03:42:15.469Z,6.2
2015-12-06T03:43:15.409Z,6.2
2015-12-06T03:44:15.364Z,6.2
2015-12-06T03:45:15.306Z,6.2
2015-12-06T03:46:15.248Z,6.2
2015-12-06T03:47:15.185Z,6.3
2015-12-06T03:48:15.141Z,6.3
2015-12-06T03:49:15.081Z,6.3
2015-12-06T03:50:15.021Z,6.3
2015-12-06T03:51:14.961Z,6.3
2015-12-06T03:52:14.995Z,6.4
2015-12-06T03:53:14.846Z,6.4
2015-12-06T03:54:14.935Z,6.5
2015-12-06T03:55:14.751Z,6.5
2015-12-06T03:56:14.692Z,6.5
2015-12-06T03:57:14.629Z,6.5
2015-12-06T03:58:14.601Z,6.5
2015-12-06T03:59:14.525Z,6.4
2015-12-06T04:00:14.528Z,6.4
2015-12-06T04:01:14.531Z,6.4
2015-12-06T04:02:14.361Z,6.4
2015-12-06T04:03:14.302Z,6.4
2015-12-06T04:04:14.241Z,6.4
2015-12-06T04:05:14.182Z,6.4
2015-12-06T04:06:14.155Z,6.4
2015-12-06T04:07:14.065Z,6.4
2015-12-06T04:08:14.002Z,6.4
2015-12-06T04:09:13.958Z,6.5
2015-12-06T04:10:13.868Z,6.5
2015-12-06T04:11:13.822Z,6.4
2015-12-06T04:12:13.778Z,6.4
2015-12-06T04:13:13.705Z,6.5
2015-12-06T04:14:13.786Z,6.4
2015-12-06T04:15:13.645Z,6.5
2015-12-06T04:16:13.539Z,6.5
2015-12-06T04:17:13.525Z,6.5
2015-12-06T04:18:13.434Z,6.5
2015-12-06T04:19:13.390Z,6.5
2015-12-06T04:20:13.299Z,6.5
2015-12-06T04:21:13.239Z,6.5
2015-12-06T04:22:13.181Z,6.6
2015-12-06T04:23:13.138Z,6.6
2015-12-06T04:24:13.078Z,6.5
2015-12-06T04:25:13.016Z,6.6
2015-12-06T04:26:12.955Z,6.6
2015-12-06T04:27:12.896Z,6.6
2015-12-06T04:28:12.835Z,6.6
2015-12-06T04:29:12.795Z,6.7
2015-12-06T04:30:12.734Z,6.7
2015-12-06T04:31:12.675Z,6.7
2015-12-06T04:32:12.612Z,6.7
2015-12-06T04:33:12.553Z,6.7
2015-12-06T04:34:12.487Z,6.7
2015-12-06T04:35:12.430Z,6.7
2015-12-06T04:36:12.386Z,6.7
2015-12-06T04:37:12.326Z,6.7
2015-12-06T04:38:12.264Z,6.7
2015-12-06T04:39:12.203Z,6.7
2015-12-06T04:40:12.144Z,6.6
2015-12-06T04:41:12.099Z,6.6
2015-12-06T04:42:12.041Z,6.6
2015-12-06T04:43:11.982Z,6.6
2015-12-06T04:44:11.922Z,6.5
2015-12-06T04:45:11.860Z,6.4
2015-12-06T04:46:11.800Z,6.4
2015-12-06T04:47:11.757Z,6.3
2015-12-06T04:48:11.697Z,6.3
2015-12-06T04:49:11.638Z,6.3
2015-12-06T04:50:11.578Z,6.3
2015-12-06T04:51:11.535Z,6.2
2015-12-06T04:52:11.475Z,6.2
2015-12-06T04:53:11.408Z,6.3
2015-12-06T04:54:11.364Z,6.2
2015-12-06T04:55:11.305Z,6.2
2015-12-06T04:56:11.245Z,6.2
2015-12-06T04:57:11.185Z,6.2
2015-12-06T04:58:11.205Z,6.2
2015-12-06T04:59:11.085Z,6.3
2015-12-06T05:00:11.024Z,6.4
2015-12-06T05:01:10.962Z,6.4
2015-12-06T05:02:10.902Z,6.4
2015-12-06T05:03:10.843Z,6.3
2015-12-06T05:04:10.798Z,6.4
2015-12-06T05:05:10.739Z,6.4
2015-12-06T05:06:10.710Z,6.4
2015-12-06T05:07:10.621Z,6.3
2015-12-06T05:08:10.559Z,6.3
2015-12-06T05:09:10.515Z,6.3
2015-12-06T05:10:10.454Z,6.3
2015-12-06T05:11:10.395Z,6.3
2015-12-06T05:12:10.334Z,6.3
2015-12-06T05:13:10.290Z,6.3
2015-12-06T05:14:10.215Z,6.3
2015-12-06T05:15:10.173Z,6.3
2015-12-06T05:16:10.111Z,6.3
2015-12-06T05:17:10.051Z,6.3
2015-12-06T05:18:09.992Z,6.3
2015-12-06T05:19:09.948Z,6.3
2015-12-06T05:20:09.889Z,6.3
2015-12-06T05:21:09.830Z,6.3
2015-12-06T05:22:09.772Z,6.2
2015-12-06T05:23:09.711Z,6.3
2015-12-06T05:24:09.667Z,6.2
2015-12-06T05:25:09.605Z,6.2
2015-12-06T05:26:09.544Z,6.2
2015-12-06T05:27:09.485Z,6.3
2015-12-06T05:28:09.441Z,6.3
2015-12-06T05:29:09.381Z,6.3
2015-12-06T05:30:09.324Z,6.3
2015-12-06T05:31:09.264Z,6.4
2015-12-06T05:32:09.202Z,6.4
2015-12-06T05:33:09.157Z,6.4
2015-12-06T05:34:09.097Z,6.5
2015-12-06T05:35:09.053Z,6.5
2015-12-06T05:36:08.977Z,6.5
2015-12-06T05:37:08.936Z,6.6
2015-12-06T05:38:08.876Z,6.6
2015-12-06T05:39:08.817Z,6.6
2015-12-06T05:40:08.754Z,6.7
2015-12-06T05:41:08.709Z,6.7
2015-12-06T05:42:08.978Z,6.7
2015-12-06T05:44:08.548Z,6.7
2015-12-06T05:45:08.489Z,6.7
2015-12-06T05:46:08.898Z,6.7
2015-12-06T05:47:08.367Z,6.7
2015-12-06T05:48:08.312Z,6.7
2015-12-06T05:49:08.267Z,6.7
2015-12-06T05:50:08.207Z,6.7
2015-12-06T05:51:08.790Z,6.6
2015-12-06T05:52:08.090Z,6.6
2015-12-06T05:53:08.391Z,6.5
2015-12-06T05:54:07.984Z,6.6
2015-12-06T05:55:09.380Z,6.5
2015-12-06T05:56:07.864Z,6.4
2015-12-06T05:57:07.821Z,6.4
2015-12-06T05:58:07.760Z,6.4
2015-12-06T05:59:07.703Z,6.4
2015-12-06T06:00:08.252Z,6.3
2015-12-06T06:01:07.596Z,6.3
2015-12-06T06:02:07.537Z,6.3
2015-12-06T06:04:07.418Z,6.2
2015-12-06T06:05:07.375Z,6.2
2015-12-06T06:06:07.534Z,6.2
2015-12-06T06:07:07.253Z,6.2
2015-12-06T06:08:08.287Z,6.2
2015-12-06T06:09:07.149Z,6.1
2015-12-06T06:10:07.340Z,6.2
2015-12-06T06:11:07.031Z,6.2
2015-12-06T06:12:06.988Z,6.2
2015-12-06T06:13:06.925Z,6.2
2015-12-06T06:14:06.867Z,6.2
2015-12-06T06:15:06.806Z,6.1
2015-12-06T06:16:06.747Z,6.1
2015-12-06T06:18:06.846Z,6
2015-12-06T06:20:07.119Z,6.1
2015-12-06T06:21:06.494Z,6.1
2015-12-06T06:22:06.637Z,6.1
2015-12-06T06:23:06.390Z,6.1
2015-12-06T06:24:08.018Z,6
2015-12-06T06:25:06.364Z,6
2015-12-06T06:26:06.758Z,6
2015-12-06T06:28:06.888Z,6
2015-12-06T06:29:06.800Z,6
2015-12-06T06:30:06.253Z,6
2015-12-06T06:31:05.958Z,6
2015-12-06T06:32:05.915Z,6
2015-12-06T06:33:05.823Z,6
2015-12-06T06:34:06.607Z,6
2015-12-06T06:35:06.160Z,5.9
2015-12-06T06:36:05.676Z,6
2015-12-06T06:37:05.615Z,6
2015-12-06T06:38:05.556Z,6
2015-12-06T06:39:05.511Z,6
2015-12-06T06:40:05.562Z,6.1
2015-12-06T06:42:05.336Z,6.2
2015-12-06T06:43:05.402Z,6.2
2015-12-06T06:44:05.217Z,6.3
2015-12-06T06:45:05.176Z,6.3
2015-12-06T06:46:05.114Z,6.4
2015-12-06T06:47:05.166Z,6.4
2015-12-06T06:48:04.994Z,6.5
2015-12-06T06:49:04.949Z,6.7
2015-12-06T06:50:04.889Z,6.6
2015-12-06T06:51:04.814Z,6.6
2015-12-06T06:52:04.770Z,6.6
2015-12-06T06:53:04.710Z,6.6
2015-12-06T06:54:04.650Z,6.6
2015-12-06T06:55:04.593Z,6.5
2015-12-06T06:56:04.549Z,6.6
2015-12-06T06:57:04.486Z,6.6
2015-12-06T06:58:04.427Z,6.6
2015-12-06T06:59:04.429Z,6.6
2015-12-06T07:00:04.323Z,6.6
2015-12-06T07:01:04.263Z,6.6
2015-12-06T07:02:04.204Z,6.5
2015-12-06T07:03:04.143Z,6.5
2015-12-06T07:04:04.086Z,6.5
2015-12-06T07:05:04.042Z,6.5
2015-12-06T07:06:03.964Z,6.5
2015-12-06T07:07:03.920Z,6.5
2015-12-06T07:08:03.859Z,6.4
2015-12-06T07:09:03.800Z,6.5
2015-12-06T07:10:03.739Z,6.4
2015-12-06T07:11:03.681Z,6.4
2015-12-06T07:12:03.620Z,6.4
2015-12-06T07:13:03.563Z,6.4
2015-12-06T07:14:03.519Z,6.4
2015-12-06T07:15:03.456Z,6.4
2015-12-06T07:16:03.396Z,6.4
2015-12-06T07:17:03.336Z,6.4
2015-12-06T07:18:03.277Z,6.4
2015-12-06T07:19:03.233Z,6.5
2015-12-06T07:20:03.172Z,6.5
2015-12-06T07:21:03.116Z,6.5
2015-12-06T07:22:03.053Z,6.5
2015-12-06T07:23:02.994Z,6.6
2015-12-06T07:24:02.949Z,6.5
2015-12-06T07:25:02.890Z,6.5
2015-12-06T07:26:02.861Z,6.5
2015-12-06T07:27:02.773Z,6.5
2015-12-06T07:28:02.713Z,6.5
2015-12-06T07:29:02.651Z,6.5
2015-12-06T07:30:02.606Z,6.4
2015-12-06T07:31:02.609Z,6.4
2015-12-06T07:32:02.486Z,6.4
2015-12-06T07:33:02.426Z,6.4
2015-12-06T07:34:02.367Z,6.4
2015-12-06T07:35:02.307Z,6.4
2015-12-06T07:36:02.265Z,6.5
2015-12-06T07:37:02.190Z,6.5
2015-12-06T07:38:02.146Z,6.5
2015-12-06T07:39:02.084Z,6.6
2015-12-06T07:40:02.023Z,6.6
2015-12-06T07:41:01.979Z,6.6
2015-12-06T07:42:01.920Z,6.6
2015-12-06T07:43:01.860Z,6.8
2015-12-06T07:44:01.800Z,7
2015-12-06T07:45:01.742Z,7.2
2015-12-06T07:46:01.683Z,7.4
2015-12-06T07:47:01.620Z,7.5
2015-12-06T07:48:01.577Z,7.6
2015-12-06T07:49:01.532Z,7.9
2015-12-06T07:50:01.457Z,8.1
2015-12-06T07:51:01.397Z,8.2
2015-12-06T07:52:01.353Z,8.3
2015-12-06T07:53:01.327Z,8.3
2015-12-06T07:54:01.236Z,8.4
2015-12-06T07:55:01.174Z,8.3
2015-12-06T07:56:01.130Z,8.3
2015-12-06T07:57:01.085Z,8.2
2015-12-06T07:58:01.024Z,8.1
2015-12-06T07:59:00.949Z,8
2015-12-06T08:00:00.905Z,7.9
2015-12-06T08:01:00.847Z,7.8
2015-12-06T08:02:00.788Z,7.7
2015-12-06T08:03:00.726Z,7.6
2015-12-06T08:04:00.665Z,7.6
2015-12-06T08:05:00.622Z,7.5
2015-12-06T08:06:00.562Z,7.5
2015-12-06T08:07:00.503Z,7.5
2015-12-06T08:08:00.459Z,7.6
2015-12-06T08:09:00.417Z,7.6
2015-12-06T08:10:00.339Z,7.8
2015-12-06T08:11:00.278Z,7.9
2015-12-06T08:12:00.219Z,8
2015-12-06T08:13:00.159Z,8.2
2015-12-06T08:14:00.115Z,8.4
2015-12-06T08:15:00.056Z,8.9
2015-12-06T08:15:59.996Z,9.1
2015-12-06T08:16:59.937Z,9.2
2015-12-06T08:17:59.893Z,9.1
2015-12-06T08:18:59.833Z,9.4
2015-12-06T08:19:59.774Z,9.6
2015-12-06T08:20:59.730Z,9.7
2015-12-06T08:21:59.670Z,9.8
2015-12-06T08:22:59.607Z,10.2
2015-12-06T08:23:59.564Z,10.2
2015-12-06T08:24:59.519Z,10.2
2015-12-06T08:25:59.460Z,10.2
2015-12-06T08:26:59.399Z,10.1
2015-12-06T08:27:59.343Z,10.5
2015-12-06T08:28:59.298Z,10.5
2015-12-06T08:29:59.238Z,10.6
2015-12-06T08:30:59.194Z,10.3
2015-12-06T08:31:59.131Z,10.5
2015-12-06T08:32:59.072Z,10.4
2015-12-06T08:33:59.028Z,10.5
2015-12-06T08:34:58.984Z,10.8
2015-12-06T08:35:58.924Z,10.8
2015-12-06T08:36:58.865Z,11.2
2015-12-06T08:37:58.804Z,11
2015-12-06T08:38:58.761Z,11.1
2015-12-06T08:39:58.701Z,11.3
2015-12-06T08:40:58.641Z,11.3
2015-12-06T08:41:58.598Z,11.1
2015-12-06T08:42:58.539Z,11.3
2015-12-06T08:43:58.495Z,11.5
2015-12-06T08:44:58.433Z,11.5
2015-12-06T08:45:58.389Z,10.8
2015-12-06T08:46:58.329Z,11.2
2015-12-06T08:47:58.284Z,11.1
2015-12-06T08:48:58.240Z,11.4
2015-12-06T08:49:58.165Z,11.3
2015-12-06T08:50:58.122Z,11.2
2015-12-06T08:51:58.061Z,11.4
2015-12-06T08:52:58.018Z,12
2015-12-06T08:53:57.958Z,11.9
2015-12-06T08:54:57.898Z,12
2015-12-06T08:55:57.839Z,12.2
2015-12-06T08:56:57.796Z,12
2015-12-06T08:57:57.751Z,11.5
2015-12-06T08:58:57.704Z,11.4
2015-12-06T08:59:57.629Z,11.7
2015-12-06T09:00:57.585Z,11.6
2015-12-06T09:01:57.540Z,11.9
2015-12-06T09:02:57.481Z,11.7
2015-12-06T09:03:57.438Z,11.8
2015-12-06T09:04:57.362Z,11.6
2015-12-06T09:05:57.318Z,11.5
2015-12-06T09:06:57.260Z,11.7
2015-12-06T09:07:57.216Z,12.1
2015-12-06T09:08:57.154Z,12.2
2015-12-06T09:09:57.109Z,11.9
2015-12-06T09:10:57.050Z,11.5
2015-12-06T09:11:57.005Z,11.6
2015-12-06T09:12:56.945Z,12
2015-12-06T09:13:56.902Z,12.2
2015-12-06T09:14:56.859Z,12.2
2015-12-06T09:15:56.816Z,11.6
2015-12-06T09:16:56.753Z,11.9
2015-12-06T09:17:56.694Z,11.8
2015-12-06T09:18:56.633Z,11.8
2015-12-06T09:19:56.855Z,11.2
2015-12-06T09:20:56.530Z,11.1
2015-12-06T09:21:56.783Z,11.1
2015-12-06T09:22:56.427Z,11.7
2015-12-06T09:23:56.368Z,12.3
2015-12-06T09:24:56.321Z,12.5
2015-12-06T09:25:56.261Z,12.5
2015-12-06T09:26:56.218Z,12.7
2015-12-06T09:27:56.158Z,12.7
2015-12-06T09:28:56.113Z,12.9
2015-12-06T09:29:56.054Z,12.8
2015-12-06T09:30:55.994Z,12.8
2015-12-06T09:31:55.949Z,12.9
2015-12-06T09:32:55.890Z,12.8
2015-12-06T09:33:55.848Z,13.1
2015-12-06T09:34:55.788Z,13.1
2015-12-06T09:35:55.742Z,12.9
2015-12-06T09:36:55.681Z,13.1
2015-12-06T09:37:55.637Z,12.7
2015-12-06T09:38:55.578Z,12.7
2015-12-06T09:39:55.534Z,13.3
2015-12-06T09:40:55.473Z,12.9
2015-12-06T09:41:55.432Z,12.8
2015-12-06T09:42:55.372Z,13.2
2015-12-06T09:43:55.328Z,13.4
2015-12-06T09:44:55.266Z,13.6
2015-12-06T09:45:55.221Z,13.9
2015-12-06T09:46:55.177Z,13.7
2015-12-06T09:47:55.117Z,13.6
2015-12-06T09:48:55.057Z,13.7
2015-12-06T09:49:54.998Z,13.9
2015-12-06T09:50:54.954Z,13.9
2015-12-06T09:51:54.895Z,14
2015-12-06T09:52:54.851Z,14.4
2015-12-06T09:53:54.807Z,14.3
2015-12-06T09:54:54.748Z,13.7
2015-12-06T09:55:54.701Z,12.3
2015-12-06T09:56:54.641Z,12.4
2015-12-06T09:57:54.582Z,11.6
2015-12-06T09:58:54.521Z,10.7
2015-12-06T09:59:54.477Z,10.6
2015-12-06T10:00:54.420Z,10.2
2015-12-06T10:01:54.376Z,9.9
2015-12-06T10:02:54.317Z,9.8
2015-12-06T10:03:54.254Z,10
2015-12-06T10:04:54.195Z,9.8
2015-12-06T10:05:54.150Z,9.6
2015-12-06T10:06:54.091Z,9.7
2015-12-06T10:07:54.031Z,9.9
2015-12-06T10:08:53.989Z,9.8
2015-12-06T10:09:53.928Z,9.8
2015-12-06T10:10:53.884Z,9.8
2015-12-06T10:11:53.825Z,10.2
2015-12-06T10:12:53.778Z,10.4
2015-12-06T10:13:53.703Z,11
2015-12-06T10:14:53.659Z,11.3
2015-12-06T10:15:53.600Z,12.3
2015-12-06T10:16:53.556Z,12.4
2015-12-06T10:17:53.495Z,12.8
2015-12-06T10:18:53.451Z,13.7
2015-12-06T10:19:53.392Z,13.7
2015-12-06T10:20:53.331Z,13.5
2015-12-06T10:21:53.288Z,13.2
2015-12-06T10:22:53.228Z,12.6
2015-12-06T10:23:53.184Z,13.1
2015-12-06T10:24:53.124Z,13.6
2015-12-06T10:25:53.080Z,14.2
2015-12-06T10:26:53.037Z,14.5
2015-12-06T10:27:52.976Z,14.7
2015-12-06T10:28:52.933Z,13.6
2015-12-06T10:29:52.873Z,13.8
2015-12-06T10:30:52.826Z,13.5
2015-12-06T10:31:52.767Z,14.4
2015-12-06T10:32:52.723Z,14.5
2015-12-06T10:33:52.663Z,13.6
2015-12-06T10:34:52.619Z,12.8
2015-12-06T10:35:52.561Z,12.4
2015-12-06T10:36:52.501Z,12.6
2015-12-06T10:37:52.473Z,12.5
2015-12-06T10:38:52.414Z,12.5
2015-12-06T10:39:52.353Z,12.1
2015-12-06T10:40:52.306Z,11.8
2015-12-06T10:41:52.262Z,11.7
2015-12-06T10:42:52.203Z,11.5
2015-12-06T10:43:52.142Z,11.5
2015-12-06T10:44:52.083Z,11.4
2015-12-06T10:45:52.039Z,11.3
2015-12-06T10:46:51.979Z,11.2
2015-12-06T10:47:51.922Z,11.4
2015-12-06T10:48:51.878Z,11.4
2015-12-06T10:49:51.816Z,11.4
2015-12-06T10:50:51.802Z,11.5
2015-12-06T10:51:51.711Z,11.5
2015-12-06T10:52:51.651Z,11.3
2015-12-06T10:53:51.607Z,11.4
2015-12-06T10:54:51.548Z,12.4
2015-12-06T10:55:51.552Z,12.8
2015-12-06T10:56:51.524Z,12.6
2015-12-06T10:57:51.415Z,12.5
2015-12-06T10:58:51.355Z,12
2015-12-06T10:59:51.295Z,11.7
2015-12-06T11:00:51.235Z,11.8
2015-12-06T11:01:51.191Z,11.5
2015-12-06T11:02:51.134Z,11.4
2015-12-06T11:03:51.090Z,11.2
2015-12-06T11:04:51.027Z,11
2015-12-06T11:05:50.968Z,10.9
2015-12-06T11:06:50.924Z,10.7
2015-12-06T11:07:50.864Z,10.9
2015-12-06T11:08:50.804Z,10.9
2015-12-06T11:09:50.759Z,10.9
2015-12-06T11:10:50.717Z,10.9
2015-12-06T11:11:50.659Z,10.8
2015-12-06T11:12:50.598Z,10.9
2015-12-06T11:13:50.551Z,10.8
2015-12-06T11:14:50.492Z,10.8
2015-12-06T11:15:50.432Z,10.8
2015-12-06T11:16:50.389Z,10.7
2015-12-06T11:17:50.330Z,10.7
2015-12-06T11:18:50.286Z,10.6
2015-12-06T11:19:50.226Z,10.6
2015-12-06T11:20:50.179Z,10.5
2015-12-06T11:21:50.119Z,10.5
2015-12-06T11:22:50.060Z,10.5
2015-12-06T11:23:50.000Z,10.5
2015-12-06T11:24:49.972Z,10.5
2015-12-06T11:25:49.898Z,10.5
2015-12-06T11:26:49.854Z,10.5
2015-12-06T11:27:49.795Z,10.5
2015-12-06T11:28:49.732Z,10.5
2015-12-06T11:29:49.688Z,10.5
2015-12-06T11:30:49.629Z,10.5
2015-12-06T11:31:49.569Z,10.4
2015-12-06T11:32:49.509Z,10.5
2015-12-06T11:33:49.464Z,10.5
2015-12-06T11:34:49.406Z,10.4
2015-12-06T11:35:49.363Z,10.4
2015-12-06T11:36:49.303Z,10.4
2015-12-06T11:37:49.240Z,10.4
2015-12-06T11:38:49.182Z,10.4
2015-12-06T11:39:49.121Z,10.5
2015-12-06T11:41:49.018Z,10.4
2015-12-06T11:42:49.210Z,10.5
2015-12-06T11:43:48.916Z,10.4
2015-12-06T11:44:48.853Z,10.4
2015-12-06T11:45:48.809Z,10.4
2015-12-06T11:46:48.750Z,10.4
2015-12-06T11:47:48.690Z,10.5
2015-12-06T11:48:48.645Z,10.5
2015-12-06T11:49:48.587Z,10.5
2015-12-06T11:50:48.543Z,10.5
2015-12-06T11:51:48.485Z,10.5
2015-12-06T11:52:48.424Z,10.4
2015-12-06T11:53:48.377Z,10.5
2015-12-06T11:54:48.318Z,10.4
2015-12-06T11:55:48.274Z,10.4
2015-12-06T11:56:48.213Z,10.5
2015-12-06T11:57:48.154Z,10.5
2015-12-06T11:58:48.111Z,10.5
2015-12-06T11:59:48.055Z,10.4
2015-12-06T12:00:47.996Z,10.5
2015-12-06T12:01:47.933Z,10.5
2015-12-06T12:02:47.889Z,10.5
2015-12-06T12:03:47.830Z,10.5
2015-12-06T12:04:47.769Z,10.6
2015-12-06T12:05:47.727Z,10.6
2015-12-06T12:06:47.667Z,10.6
2015-12-06T12:07:47.601Z,10.6
2015-12-06T12:08:47.546Z,10.6
2015-12-06T12:09:47.475Z,10.7
2015-12-06T12:10:47.403Z,10.7
2015-12-06T12:11:47.346Z,10.8
2015-12-06T12:12:47.297Z,10.8
2015-12-06T12:13:47.219Z,10.8
2015-12-06T12:14:47.170Z,10.7
2015-12-06T12:15:47.106Z,10.6
2015-12-06T12:16:47.042Z,10.6
2015-12-06T12:17:46.994Z,10.7
2015-12-06T12:18:46.933Z,10.7
2015-12-06T12:19:46.871Z,10.7
2015-12-06T12:20:46.826Z,10.7
2015-12-06T12:21:46.770Z,10.7
2015-12-06T12:22:46.725Z,10.8
2015-12-06T12:23:46.664Z,10.8
2015-12-06T12:24:46.604Z,10.8
2015-12-06T12:25:46.560Z,10.8
2015-12-06T12:26:46.515Z,10.8
2015-12-06T12:27:46.456Z,10.7
2015-12-06T12:28:46.395Z,10.7
2015-12-06T12:29:46.333Z,10.7
2015-12-06T12:30:46.288Z,10.8
2015-12-06T12:31:46.227Z,10.7
2015-12-06T12:32:46.167Z,10.8
2015-12-06T12:33:46.124Z,10.7
2015-12-06T12:34:46.063Z,10.7
2015-12-06T12:35:46.021Z,10.8
2015-12-06T12:36:45.962Z,10.8
2015-12-06T12:37:45.901Z,10.8
2015-12-06T12:38:45.858Z,10.9
2015-12-06T12:39:45.798Z,11.4
2015-12-06T12:40:45.754Z,12.5
2015-12-06T12:41:45.694Z,12
2015-12-06T12:42:45.631Z,12.2
2015-12-06T12:43:45.587Z,11.5
2015-12-06T12:44:45.528Z,11.4
2015-12-06T12:45:45.484Z,11.2
2015-12-06T12:46:45.423Z,11
2015-12-06T12:47:45.380Z,11.1
2015-12-06T12:48:45.323Z,10.9
2015-12-06T12:49:45.294Z,10.8
2015-12-06T12:50:45.216Z,10.7
2015-12-06T12:51:45.155Z,10.6
2015-12-06T12:52:45.096Z,10.5
2015-12-06T12:53:45.052Z,10.5
2015-12-06T12:54:44.992Z,10.6
2015-12-06T12:55:44.933Z,11.8
2015-12-06T12:56:44.891Z,12.9
2015-12-06T12:57:44.831Z,13.2
2015-12-06T12:58:44.785Z,12.4
2015-12-06T12:59:44.724Z,12.9
2015-12-06T13:00:44.665Z,12.9
2015-12-06T13:01:44.621Z,13.4
2015-12-06T13:02:44.576Z,13.8
2015-12-06T13:03:44.517Z,14
2015-12-06T13:04:44.459Z,14
2015-12-06T13:05:44.415Z,14
2015-12-06T13:06:44.352Z,13.7
2015-12-06T13:07:44.309Z,14.7
2015-12-06T13:08:44.249Z,14.8
2015-12-06T13:09:44.204Z,15.2
2015-12-06T13:10:44.145Z,14.5
2015-12-06T13:11:44.101Z,15.1
2015-12-06T13:12:44.042Z,15.6
2015-12-06T13:13:43.982Z,14.9
2015-12-06T13:14:43.938Z,14.9
2015-12-06T13:15:43.894Z,14.8
2015-12-06T13:16:43.835Z,14.3
2015-12-06T13:17:43.774Z,13.8
2015-12-06T13:18:43.730Z,13.6
2015-12-06T13:19:43.670Z,13.7
2015-12-06T13:20:43.628Z,13.4
2015-12-06T13:21:43.567Z,13.3
2015-12-06T13:22:43.586Z,12.9
2015-12-06T13:23:43.461Z,13.3
2015-12-06T13:24:43.416Z,13.6
2015-12-06T13:25:43.357Z,13.4
2015-12-06T13:26:43.297Z,13
2015-12-06T13:27:43.300Z,12.5
2015-12-06T13:28:43.208Z,12.3
2015-12-06T13:29:43.151Z,12.2
2015-12-06T13:30:43.090Z,11.8
2015-12-06T13:31:43.031Z,11.9
2015-12-06T13:32:42.987Z,11.7
2015-12-06T13:33:42.926Z,11.8
2015-12-06T13:34:42.883Z,11.8
2015-12-06T13:35:42.823Z,12
2015-12-06T13:36:42.778Z,11.9
2015-12-06T13:37:42.719Z,12
2015-12-06T13:38:42.659Z,12
2015-12-06T13:39:42.614Z,12.1
2015-12-06T13:40:42.555Z,12.2
2015-12-06T13:41:42.495Z,12.2
2015-12-06T13:42:42.451Z,11.8
2015-12-06T13:43:42.392Z,11.5
2015-12-06T13:44:42.329Z,11.3
2015-12-06T13:45:42.286Z,11.2